sensor_id;sensor_type;location;lat;lon;timestamp;temperature;humidity
40738;DHT22;54759;48.094;-1.628;2023-04-24T00:02:37;21.70;46.90
40738;DHT22;54759;48.094;-1.628;2023-04-24T00:05:40;21.70;47.00
40738;DHT22;54759;48.094;-1.628;2023-04-24T00:08:42;21.30;46.80
40738;DHT22;54759;48.094;-1.628;2023-04-24T00:11:43;21.20;46.80
40738;DHT22;54759;48.094;-1.628;2023-04-24T00:14:45;22.10;47.40
40738;DHT22;54759;48.094;-1.628;2023-04-24T00:17:47;21.20;46.80
40738;DHT22;54759;48.094;-1.628;2023-04-24T00:20:48;21.60;47.10
40738;DHT22;54759;48.094;-1.628;2023-04-24T00:23:50;21.30;46.90
40738;DHT22;54759;48.094;-1.628;2023-04-24T00:26:51;22.20;47.40
40738;DHT22;54759;48.094;-1.628;2023-04-24T00:29:53;21.60;47.10
40738;DHT22;54759;48.094;-1.628;2023-04-24T00:32:55;21.20;46.90
40738;DHT22;54759;48.094;-1.628;2023-04-24T00:35:57;21.00;46.80
40738;DHT22;54759;48.094;-1.628;2023-04-24T00:38:59;21.60;47.10
40738;DHT22;54759;48.094;-1.628;2023-04-24T00:42:00;21.20;46.90
40738;DHT22;54759;48.094;-1.628;2023-04-24T00:45:02;21.20;46.70
40738;DHT22;54759;48.094;-1.628;2023-04-24T00:48:05;21.50;46.90
40738;DHT22;54759;48.094;-1.628;2023-04-24T00:51:07;21.60;47.20
40738;DHT22;54759;48.094;-1.628;2023-04-24T00:54:09;21.20;47.00
40738;DHT22;54759;48.094;-1.628;2023-04-24T00:57:10;21.90;47.40
40738;DHT22;54759;48.094;-1.628;2023-04-24T01:00:12;21.00;46.80
40738;DHT22;54759;48.094;-1.628;2023-04-24T01:03:15;21.20;46.80
40738;DHT22;54759;48.094;-1.628;2023-04-24T01:06:16;20.90;47.00
40738;DHT22;54759;48.094;-1.628;2023-04-24T01:09:19;21.10;46.90
40738;DHT22;54759;48.094;-1.628;2023-04-24T01:12:22;21.20;46.90
40738;DHT22;54759;48.094;-1.628;2023-04-24T01:15:25;21.00;46.90
40738;DHT22;54759;48.094;-1.628;2023-04-24T01:18:28;21.30;46.90
40738;DHT22;54759;48.094;-1.628;2023-04-24T01:21:30;21.30;47.10
40738;DHT22;54759;48.094;-1.628;2023-04-24T01:24:35;21.50;44.60
40738;DHT22;54759;48.094;-1.628;2023-04-24T01:27:39;22.00;47.70
40738;DHT22;54759;48.094;-1.628;2023-04-24T01:30:43;21.10;48.10
40738;DHT22;54759;48.094;-1.628;2023-04-24T01:33:45;21.10;47.20
40738;DHT22;54759;48.094;-1.628;2023-04-24T01:36:46;20.90;48.00
40738;DHT22;54759;48.094;-1.628;2023-04-24T01:39:49;23.50;48.50
40738;DHT22;54759;48.094;-1.628;2023-04-24T01:42:50;20.50;47.10
40738;DHT22;54759;48.094;-1.628;2023-04-24T01:45:52;20.80;47.40
40738;DHT22;54759;48.094;-1.628;2023-04-24T01:48:54;21.10;47.30
40738;DHT22;54759;48.094;-1.628;2023-04-24T01:51:57;20.90;48.70
40738;DHT22;54759;48.094;-1.628;2023-04-24T01:54:59;20.10;47.40
40738;DHT22;54759;48.094;-1.628;2023-04-24T01:58:01;19.20;46.20
40738;DHT22;54759;48.094;-1.628;2023-04-24T02:01:03;21.30;48.10
40738;DHT22;54759;48.094;-1.628;2023-04-24T02:04:05;21.80;48.90
40738;DHT22;54759;48.094;-1.628;2023-04-24T02:07:07;20.70;47.00
40738;DHT22;54759;48.094;-1.628;2023-04-24T02:10:10;20.90;48.30
40738;DHT22;54759;48.094;-1.628;2023-04-24T02:13:16;20.90;47.20
40738;DHT22;54759;48.094;-1.628;2023-04-24T02:16:18;20.50;47.90
40738;DHT22;54759;48.094;-1.628;2023-04-24T02:19:20;21.20;48.10
40738;DHT22;54759;48.094;-1.628;2023-04-24T02:22:21;21.10;48.40
40738;DHT22;54759;48.094;-1.628;2023-04-24T02:25:25;20.80;47.90
40738;DHT22;54759;48.094;-1.628;2023-04-24T02:28:29;21.50;47.60
40738;DHT22;54759;48.094;-1.628;2023-04-24T02:31:31;21.30;49.50
40738;DHT22;54759;48.094;-1.628;2023-04-24T02:34:32;21.60;48.40
40738;DHT22;54759;48.094;-1.628;2023-04-24T02:37:35;21.40;49.20
40738;DHT22;54759;48.094;-1.628;2023-04-24T02:40:37;20.40;48.00
40738;DHT22;54759;48.094;-1.628;2023-04-24T02:43:38;20.80;47.40
40738;DHT22;54759;48.094;-1.628;2023-04-24T02:46:40;19.60;47.80
40738;DHT22;54759;48.094;-1.628;2023-04-24T02:49:45;21.00;47.40
40738;DHT22;54759;48.094;-1.628;2023-04-24T02:52:47;21.40;44.80
40738;DHT22;54759;48.094;-1.628;2023-04-24T02:55:49;21.10;47.80
40738;DHT22;54759;48.094;-1.628;2023-04-24T02:58:51;21.70;47.90
40738;DHT22;54759;48.094;-1.628;2023-04-24T03:01:52;20.70;48.40
40738;DHT22;54759;48.094;-1.628;2023-04-24T03:04:53;20.20;48.00
40738;DHT22;54759;48.094;-1.628;2023-04-24T03:07:56;20.50;48.50
40738;DHT22;54759;48.094;-1.628;2023-04-24T03:10:58;22.30;48.80
40738;DHT22;54759;48.094;-1.628;2023-04-24T03:14:01;20.90;47.50
40738;DHT22;54759;48.094;-1.628;2023-04-24T03:17:07;21.90;48.40
40738;DHT22;54759;48.094;-1.628;2023-04-24T03:20:09;20.10;44.30
40738;DHT22;54759;48.094;-1.628;2023-04-24T03:23:11;20.90;47.40
40738;DHT22;54759;48.094;-1.628;2023-04-24T03:32:36;21.50;42.90
40738;DHT22;54759;48.094;-1.628;2023-04-24T03:35:45;21.10;42.90
40738;DHT22;54759;48.094;-1.628;2023-04-24T03:38:47;21.00;42.80
40738;DHT22;54759;48.094;-1.628;2023-04-24T03:42:02;21.40;43.00
40738;DHT22;54759;48.094;-1.628;2023-04-24T03:45:21;21.00;42.80
40738;DHT22;54759;48.094;-1.628;2023-04-24T03:48:25;21.40;42.90
40738;DHT22;54759;48.094;-1.628;2023-04-24T03:51:27;21.40;42.90
40738;DHT22;54759;48.094;-1.628;2023-04-24T03:54:37;21.50;42.90
40738;DHT22;54759;48.094;-1.628;2023-04-24T03:57:40;21.30;42.70
40738;DHT22;54759;48.094;-1.628;2023-04-24T04:00:50;21.30;42.70
40738;DHT22;54759;48.094;-1.628;2023-04-24T04:04:12;21.30;42.60
40738;DHT22;54759;48.094;-1.628;2023-04-24T04:07:14;21.30;42.70
40738;DHT22;54759;48.094;-1.628;2023-04-24T04:10:16;21.20;42.60
40738;DHT22;54759;48.094;-1.628;2023-04-24T04:13:18;21.10;42.50
40738;DHT22;54759;48.094;-1.628;2023-04-24T04:16:19;21.00;42.40
40738;DHT22;54759;48.094;-1.628;2023-04-24T04:19:26;21.00;42.60
40738;DHT22;54759;48.094;-1.628;2023-04-24T04:22:28;21.10;42.40
40738;DHT22;54759;48.094;-1.628;2023-04-24T04:25:29;21.10;42.40
40738;DHT22;54759;48.094;-1.628;2023-04-24T04:28:31;21.10;42.40
40738;DHT22;54759;48.094;-1.628;2023-04-24T04:31:36;21.20;42.50
40738;DHT22;54759;48.094;-1.628;2023-04-24T04:34:43;21.30;42.50
40738;DHT22;54759;48.094;-1.628;2023-04-24T04:37:46;21.30;42.50
40738;DHT22;54759;48.094;-1.628;2023-04-24T04:45:50;21.30;42.30
40738;DHT22;54759;48.094;-1.628;2023-04-24T04:49:12;21.30;42.50
40738;DHT22;54759;48.094;-1.628;2023-04-24T04:52:14;21.00;42.40
40738;DHT22;54759;48.094;-1.628;2023-04-24T04:55:18;21.20;42.50
40738;DHT22;54759;48.094;-1.628;2023-04-24T04:58:41;21.20;42.50
40738;DHT22;54759;48.094;-1.628;2023-04-24T05:01:46;21.20;42.50
40738;DHT22;54759;48.094;-1.628;2023-04-24T05:04:49;21.10;42.40
40738;DHT22;54759;48.094;-1.628;2023-04-24T05:07:53;21.10;42.40
40738;DHT22;54759;48.094;-1.628;2023-04-24T05:10:55;21.00;42.40
40738;DHT22;54759;48.094;-1.628;2023-04-24T05:13:57;21.00;42.40
40738;DHT22;54759;48.094;-1.628;2023-04-24T05:17:07;21.10;42.40
40738;DHT22;54759;48.094;-1.628;2023-04-24T05:20:10;21.30;42.50
40738;DHT22;54759;48.094;-1.628;2023-04-24T05:23:13;21.00;42.40
40738;DHT22;54759;48.094;-1.628;2023-04-24T05:26:17;21.10;42.50
40738;DHT22;54759;48.094;-1.628;2023-04-24T05:29:19;21.00;42.40
40738;DHT22;54759;48.094;-1.628;2023-04-24T05:32:21;21.30;42.60
40738;DHT22;54759;48.094;-1.628;2023-04-24T05:35:25;21.00;42.40
40738;DHT22;54759;48.094;-1.628;2023-04-24T05:38:27;21.00;42.50
40738;DHT22;54759;48.094;-1.628;2023-04-24T05:41:28;21.00;42.50
40738;DHT22;54759;48.094;-1.628;2023-04-24T05:44:30;20.90;42.40
40738;DHT22;54759;48.094;-1.628;2023-04-24T05:47:33;21.20;42.60
40738;DHT22;54759;48.094;-1.628;2023-04-24T05:50:35;20.90;42.50
40738;DHT22;54759;48.094;-1.628;2023-04-24T05:53:39;21.00;42.40
40738;DHT22;54759;48.094;-1.628;2023-04-24T05:56:41;21.00;42.60
40738;DHT22;54759;48.094;-1.628;2023-04-24T05:59:50;21.30;42.70
40738;DHT22;54759;48.094;-1.628;2023-04-24T06:02:52;21.20;42.60
40738;DHT22;54759;48.094;-1.628;2023-04-24T06:05:55;21.20;42.70
40738;DHT22;54759;48.094;-1.628;2023-04-24T06:08:58;21.10;42.60
40738;DHT22;54759;48.094;-1.628;2023-04-24T06:12:01;21.10;42.70
40738;DHT22;54759;48.094;-1.628;2023-04-24T06:15:14;21.20;42.80
40738;DHT22;54759;48.094;-1.628;2023-04-24T06:18:27;21.10;42.80
40738;DHT22;54759;48.094;-1.628;2023-04-24T06:21:28;21.30;42.90
40738;DHT22;54759;48.094;-1.628;2023-04-24T06:24:30;21.30;42.90
40738;DHT22;54759;48.094;-1.628;2023-04-24T06:27:32;21.20;42.90
40738;DHT22;54759;48.094;-1.628;2023-04-24T06:30:36;21.10;42.80
40738;DHT22;54759;48.094;-1.628;2023-04-24T06:33:37;21.20;42.90
40738;DHT22;54759;48.094;-1.628;2023-04-24T06:36:38;21.30;43.00
40738;DHT22;54759;48.094;-1.628;2023-04-24T06:39:43;21.30;42.90
40738;DHT22;54759;48.094;-1.628;2023-04-24T06:42:45;21.20;42.90
40738;DHT22;54759;48.094;-1.628;2023-04-24T06:45:46;21.30;43.00
40738;DHT22;54759;48.094;-1.628;2023-04-24T06:48:49;21.20;43.00
40738;DHT22;54759;48.094;-1.628;2023-04-24T06:51:51;21.40;43.00
40738;DHT22;54759;48.094;-1.628;2023-04-24T06:54:53;21.50;43.10
40738;DHT22;54759;48.094;-1.628;2023-04-24T06:58:00;21.00;42.90
40738;DHT22;54759;48.094;-1.628;2023-04-24T07:01:02;21.20;43.00
40738;DHT22;54759;48.094;-1.628;2023-04-24T07:04:03;21.30;43.10
40738;DHT22;54759;48.094;-1.628;2023-04-24T07:07:05;21.10;43.00
40738;DHT22;54759;48.094;-1.628;2023-04-24T07:10:08;21.00;43.00
40738;DHT22;54759;48.094;-1.628;2023-04-24T07:13:10;20.50;42.80
40738;DHT22;54759;48.094;-1.628;2023-04-24T07:16:11;21.40;43.90
40738;DHT22;54759;48.094;-1.628;2023-04-24T07:19:13;21.50;43.40
40738;DHT22;54759;48.094;-1.628;2023-04-24T07:22:15;21.10;43.10
40738;DHT22;54759;48.094;-1.628;2023-04-24T07:25:19;21.40;43.20
40738;DHT22;54759;48.094;-1.628;2023-04-24T07:28:20;21.40;43.20
40738;DHT22;54759;48.094;-1.628;2023-04-24T07:31:21;21.20;43.10
40738;DHT22;54759;48.094;-1.628;2023-04-24T07:34:23;21.50;43.50
40738;DHT22;54759;48.094;-1.628;2023-04-24T07:37:28;21.40;43.30
40738;DHT22;54759;48.094;-1.628;2023-04-24T07:40:30;21.50;43.20
40738;DHT22;54759;48.094;-1.628;2023-04-24T07:43:31;21.70;43.40
40738;DHT22;54759;48.094;-1.628;2023-04-24T07:46:33;21.20;43.00
40738;DHT22;54759;48.094;-1.628;2023-04-24T07:49:34;21.50;43.30
40738;DHT22;54759;48.094;-1.628;2023-04-24T07:52:36;21.20;42.90
40738;DHT22;54759;48.094;-1.628;2023-04-24T07:55:38;21.70;43.20
40738;DHT22;54759;48.094;-1.628;2023-04-24T07:58:42;21.60;43.00
40738;DHT22;54759;48.094;-1.628;2023-04-24T08:01:45;21.40;42.70
40738;DHT22;54759;48.094;-1.628;2023-04-24T08:04:46;21.60;42.80
40738;DHT22;54759;48.094;-1.628;2023-04-24T08:07:48;21.60;42.70
40738;DHT22;54759;48.094;-1.628;2023-04-24T08:10:54;21.60;42.60
40738;DHT22;54759;48.094;-1.628;2023-04-24T08:13:56;21.70;42.50
40738;DHT22;54759;48.094;-1.628;2023-04-24T08:16:57;21.70;42.40
40738;DHT22;54759;48.094;-1.628;2023-04-24T08:20:01;21.80;42.50
40738;DHT22;54759;48.094;-1.628;2023-04-24T08:23:02;21.60;42.20
40738;DHT22;54759;48.094;-1.628;2023-04-24T08:26:04;21.80;42.30
40738;DHT22;54759;48.094;-1.628;2023-04-24T08:29:07;21.60;42.10
40738;DHT22;54759;48.094;-1.628;2023-04-24T08:32:09;21.90;42.20
40738;DHT22;54759;48.094;-1.628;2023-04-24T08:35:10;21.80;41.90
40738;DHT22;54759;48.094;-1.628;2023-04-24T08:38:12;21.90;42.00
40738;DHT22;54759;48.094;-1.628;2023-04-24T08:41:14;21.80;41.80
40738;DHT22;54759;48.094;-1.628;2023-04-24T08:44:17;22.00;41.90
40738;DHT22;54759;48.094;-1.628;2023-04-24T08:47:20;21.90;41.70
40738;DHT22;54759;48.094;-1.628;2023-04-24T08:50:22;21.70;41.50
40738;DHT22;54759;48.094;-1.628;2023-04-24T08:53:24;21.70;41.40
40738;DHT22;54759;48.094;-1.628;2023-04-24T08:56:28;21.90;41.40
40738;DHT22;54759;48.094;-1.628;2023-04-24T08:59:33;22.10;41.30
40738;DHT22;54759;48.094;-1.628;2023-04-24T09:02:36;22.00;41.20
40738;DHT22;54759;48.094;-1.628;2023-04-24T09:05:41;21.90;41.00
40738;DHT22;54759;48.094;-1.628;2023-04-24T09:08:47;21.90;40.90
40738;DHT22;54759;48.094;-1.628;2023-04-24T09:11:50;22.10;40.80
40738;DHT22;54759;48.094;-1.628;2023-04-24T09:14:52;22.10;40.60
40738;DHT22;54759;48.094;-1.628;2023-04-24T09:17:54;22.20;40.60
40738;DHT22;54759;48.094;-1.628;2023-04-24T09:20:57;22.00;40.30
40738;DHT22;54759;48.094;-1.628;2023-04-24T09:24:00;22.10;40.30
40738;DHT22;54759;48.094;-1.628;2023-04-24T09:27:02;22.20;40.30
40738;DHT22;54759;48.094;-1.628;2023-04-24T09:30:05;22.20;40.40
40738;DHT22;54759;48.094;-1.628;2023-04-24T09:33:12;22.00;40.30
40738;DHT22;54759;48.094;-1.628;2023-04-24T09:36:17;22.30;40.40
40738;DHT22;54759;48.094;-1.628;2023-04-24T09:39:19;22.30;40.30
40738;DHT22;54759;48.094;-1.628;2023-04-24T09:42:25;22.10;40.20
40738;DHT22;54759;48.094;-1.628;2023-04-24T09:45:35;22.10;40.10
40738;DHT22;54759;48.094;-1.628;2023-04-24T09:48:40;22.30;40.20
40738;DHT22;54759;48.094;-1.628;2023-04-24T09:51:42;22.50;40.30
40738;DHT22;54759;48.094;-1.628;2023-04-24T09:54:53;22.40;40.30
40738;DHT22;54759;48.094;-1.628;2023-04-24T09:57:57;22.50;40.30
40738;DHT22;54759;48.094;-1.628;2023-04-24T10:00:58;22.40;40.30
40738;DHT22;54759;48.094;-1.628;2023-04-24T10:04:00;22.40;40.30
40738;DHT22;54759;48.094;-1.628;2023-04-24T10:07:03;22.40;40.80
40738;DHT22;54759;48.094;-1.628;2023-04-24T10:10:07;22.40;40.10
40738;DHT22;54759;48.094;-1.628;2023-04-24T10:13:11;22.50;40.10
40738;DHT22;54759;48.094;-1.628;2023-04-24T10:16:13;22.50;40.00
40738;DHT22;54759;48.094;-1.628;2023-04-24T10:19:16;22.50;39.90
40738;DHT22;54759;48.094;-1.628;2023-04-24T10:22:22;22.50;39.80
40738;DHT22;54759;48.094;-1.628;2023-04-24T10:25:26;22.30;39.70
40738;DHT22;54759;48.094;-1.628;2023-04-24T10:28:29;22.40;39.60
40738;DHT22;54759;48.094;-1.628;2023-04-24T10:31:33;22.50;39.60
40738;DHT22;54759;48.094;-1.628;2023-04-24T10:34:36;22.60;39.70
40738;DHT22;54759;48.094;-1.628;2023-04-24T10:37:40;22.40;39.50
40738;DHT22;54759;48.094;-1.628;2023-04-24T10:40:43;22.30;39.40
40738;DHT22;54759;48.094;-1.628;2023-04-24T10:43:45;22.10;39.20
40738;DHT22;54759;48.094;-1.628;2023-04-24T10:46:47;22.20;39.20
40738;DHT22;54759;48.094;-1.628;2023-04-24T10:49:54;22.50;39.40
40738;DHT22;54759;48.094;-1.628;2023-04-24T10:53:06;22.30;39.20
40738;DHT22;54759;48.094;-1.628;2023-04-24T10:56:09;22.30;39.20
40738;DHT22;54759;48.094;-1.628;2023-04-24T10:59:24;22.40;39.20
40738;DHT22;54759;48.094;-1.628;2023-04-24T11:02:36;22.20;39.10
40738;DHT22;54759;48.094;-1.628;2023-04-24T11:05:56;22.30;39.10
40738;DHT22;54759;48.094;-1.628;2023-04-24T11:09:03;22.50;39.30
40738;DHT22;54759;48.094;-1.628;2023-04-24T11:12:08;22.50;39.30
40738;DHT22;54759;48.094;-1.628;2023-04-24T11:15:12;22.40;39.20
40738;DHT22;54759;48.094;-1.628;2023-04-24T11:18:14;22.40;39.20
40738;DHT22;54759;48.094;-1.628;2023-04-24T11:21:20;22.40;39.20
40738;DHT22;54759;48.094;-1.628;2023-04-24T11:24:25;22.40;39.20
40738;DHT22;54759;48.094;-1.628;2023-04-24T11:27:29;22.30;39.10
40738;DHT22;54759;48.094;-1.628;2023-04-24T11:30:32;22.30;39.20
40738;DHT22;54759;48.094;-1.628;2023-04-24T11:33:34;22.40;39.30
40738;DHT22;54759;48.094;-1.628;2023-04-24T11:36:36;22.40;39.40
40738;DHT22;54759;48.094;-1.628;2023-04-24T11:39:40;22.30;39.40
40738;DHT22;54759;48.094;-1.628;2023-04-24T11:42:44;22.30;39.70
40738;DHT22;54759;48.094;-1.628;2023-04-24T11:45:48;22.60;39.60
40738;DHT22;54759;48.094;-1.628;2023-04-24T11:48:50;22.20;39.30
40738;DHT22;54759;48.094;-1.628;2023-04-24T11:51:55;22.20;39.20
40738;DHT22;54759;48.094;-1.628;2023-04-24T11:55:00;22.10;39.20
40738;DHT22;54759;48.094;-1.628;2023-04-24T11:58:02;22.40;39.30
40738;DHT22;54759;48.094;-1.628;2023-04-24T12:01:05;22.40;39.30
40738;DHT22;54759;48.094;-1.628;2023-04-24T12:04:06;22.30;39.10
40738;DHT22;54759;48.094;-1.628;2023-04-24T12:07:08;22.30;39.00
40738;DHT22;54759;48.094;-1.628;2023-04-24T12:10:10;22.50;38.90
40738;DHT22;54759;48.094;-1.628;2023-04-24T12:13:15;22.30;38.60
40738;DHT22;54759;48.094;-1.628;2023-04-24T12:16:17;22.40;38.60
40738;DHT22;54759;48.094;-1.628;2023-04-24T12:19:20;22.50;38.50
40738;DHT22;54759;48.094;-1.628;2023-04-24T12:22:22;22.20;38.30
40738;DHT22;54759;48.094;-1.628;2023-04-24T12:25:24;22.30;38.30
40738;DHT22;54759;48.094;-1.628;2023-04-24T12:28:34;22.50;38.40
40738;DHT22;54759;48.094;-1.628;2023-04-24T12:31:37;22.30;38.20
40738;DHT22;54759;48.094;-1.628;2023-04-24T12:34:38;22.50;38.30
40738;DHT22;54759;48.094;-1.628;2023-04-24T12:37:42;22.50;38.60
40738;DHT22;54759;48.094;-1.628;2023-04-24T12:40:47;22.60;38.30
40738;DHT22;54759;48.094;-1.628;2023-04-24T12:43:52;22.60;38.30
40738;DHT22;54759;48.094;-1.628;2023-04-24T12:46:55;22.70;38.00
40738;DHT22;54759;48.094;-1.628;2023-04-24T12:49:59;22.40;37.80
40738;DHT22;54759;48.094;-1.628;2023-04-24T12:53:00;22.40;37.70
40738;DHT22;54759;48.094;-1.628;2023-04-24T12:56:02;22.60;37.80
40738;DHT22;54759;48.094;-1.628;2023-04-24T12:59:04;22.40;37.70
40738;DHT22;54759;48.094;-1.628;2023-04-24T13:02:06;22.50;37.90
40738;DHT22;54759;48.094;-1.628;2023-04-24T13:05:08;22.50;37.80
40738;DHT22;54759;48.094;-1.628;2023-04-24T13:08:10;22.70;37.90
40738;DHT22;54759;48.094;-1.628;2023-04-24T13:11:14;22.70;37.70
40738;DHT22;54759;48.094;-1.628;2023-04-24T13:14:16;22.50;37.50
40738;DHT22;54759;48.094;-1.628;2023-04-24T13:17:18;22.40;37.50
40738;DHT22;54759;48.094;-1.628;2023-04-24T13:20:20;22.70;37.60
40738;DHT22;54759;48.094;-1.628;2023-04-24T13:23:21;22.60;38.10
40738;DHT22;54759;48.094;-1.628;2023-04-24T13:26:24;23.10;38.80
40738;DHT22;54759;48.094;-1.628;2023-04-24T13:29:26;22.80;38.70
40738;DHT22;54759;48.094;-1.628;2023-04-24T13:32:28;22.50;37.90
40738;DHT22;54759;48.094;-1.628;2023-04-24T13:35:30;22.80;38.10
40738;DHT22;54759;48.094;-1.628;2023-04-24T13:38:31;22.80;38.20
40738;DHT22;54759;48.094;-1.628;2023-04-24T13:41:36;23.00;38.00
40738;DHT22;54759;48.094;-1.628;2023-04-24T13:44:37;22.80;38.20
40738;DHT22;54759;48.094;-1.628;2023-04-24T13:47:40;22.80;38.10
40738;DHT22;54759;48.094;-1.628;2023-04-24T13:50:42;22.50;37.90
40738;DHT22;54759;48.094;-1.628;2023-04-24T13:53:43;22.90;38.10
40738;DHT22;54759;48.094;-1.628;2023-04-24T13:56:48;22.50;37.90
40738;DHT22;54759;48.094;-1.628;2023-04-24T13:59:50;22.90;38.00
40738;DHT22;54759;48.094;-1.628;2023-04-24T14:02:52;22.40;37.90
40738;DHT22;54759;48.094;-1.628;2023-04-24T14:05:54;23.00;38.20
40738;DHT22;54759;48.094;-1.628;2023-04-24T14:08:55;22.90;38.30
40738;DHT22;54759;48.094;-1.628;2023-04-24T14:11:57;23.00;38.50
40738;DHT22;54759;48.094;-1.628;2023-04-24T14:14:58;22.80;38.40
40738;DHT22;54759;48.094;-1.628;2023-04-24T14:18:01;22.90;38.40
40738;DHT22;54759;48.094;-1.628;2023-04-24T14:21:05;22.70;38.30
40738;DHT22;54759;48.094;-1.628;2023-04-24T14:24:08;23.10;38.00
40738;DHT22;54759;48.094;-1.628;2023-04-24T14:27:09;23.00;38.10
40738;DHT22;54759;48.094;-1.628;2023-04-24T14:30:11;22.80;38.20
40738;DHT22;54759;48.094;-1.628;2023-04-24T14:33:14;22.70;38.60
40738;DHT22;54759;48.094;-1.628;2023-04-24T14:36:18;22.70;38.70
40738;DHT22;54759;48.094;-1.628;2023-04-24T14:39:21;23.00;39.30
40738;DHT22;54759;48.094;-1.628;2023-04-24T14:42:24;23.00;39.70
40738;DHT22;54759;48.094;-1.628;2023-04-24T14:45:26;22.70;40.00
40738;DHT22;54759;48.094;-1.628;2023-04-24T14:48:28;22.90;40.70
40738;DHT22;54759;48.094;-1.628;2023-04-24T14:51:30;22.80;41.00
40738;DHT22;54759;48.094;-1.628;2023-04-24T14:54:31;23.10;41.70
40738;DHT22;54759;48.094;-1.628;2023-04-24T14:57:32;22.90;42.00
40738;DHT22;54759;48.094;-1.628;2023-04-24T15:00:34;23.00;43.10
40738;DHT22;54759;48.094;-1.628;2023-04-24T15:03:36;23.10;42.30
40738;DHT22;54759;48.094;-1.628;2023-04-24T15:06:38;22.70;42.50
40738;DHT22;54759;48.094;-1.628;2023-04-24T15:09:40;23.10;43.00
40738;DHT22;54759;48.094;-1.628;2023-04-24T15:12:41;23.20;43.20
40738;DHT22;54759;48.094;-1.628;2023-04-24T15:15:43;23.00;43.30
40738;DHT22;54759;48.094;-1.628;2023-04-24T15:18:46;22.90;43.40
40738;DHT22;54759;48.094;-1.628;2023-04-24T15:21:48;22.90;43.60
40738;DHT22;54759;48.094;-1.628;2023-04-24T15:24:49;23.00;43.70
40738;DHT22;54759;48.094;-1.628;2023-04-24T15:27:51;23.20;44.00
40738;DHT22;54759;48.094;-1.628;2023-04-24T15:30:52;23.00;43.70
40738;DHT22;54759;48.094;-1.628;2023-04-24T15:33:54;23.30;44.10
40738;DHT22;54759;48.094;-1.628;2023-04-24T15:36:56;22.80;43.80
40738;DHT22;54759;48.094;-1.628;2023-04-24T15:40:01;23.10;44.40
40738;DHT22;54759;48.094;-1.628;2023-04-24T15:43:05;23.10;44.80
40738;DHT22;54759;48.094;-1.628;2023-04-24T15:46:07;23.00;45.00
40738;DHT22;54759;48.094;-1.628;2023-04-24T15:49:09;23.10;45.00
40738;DHT22;54759;48.094;-1.628;2023-04-24T15:52:11;23.10;44.80
40738;DHT22;54759;48.094;-1.628;2023-04-24T15:55:14;23.10;44.80
40738;DHT22;54759;48.094;-1.628;2023-04-24T15:58:16;22.70;44.60
40738;DHT22;54759;48.094;-1.628;2023-04-24T16:01:18;23.00;44.70
40738;DHT22;54759;48.094;-1.628;2023-04-24T16:04:20;23.00;44.70
40738;DHT22;54759;48.094;-1.628;2023-04-24T16:07:22;23.00;44.60
40738;DHT22;54759;48.094;-1.628;2023-04-24T16:10:24;23.00;44.60
40738;DHT22;54759;48.094;-1.628;2023-04-24T16:13:25;23.00;44.40
40738;DHT22;54759;48.094;-1.628;2023-04-24T16:16:29;23.00;44.30
40738;DHT22;54759;48.094;-1.628;2023-04-24T16:19:31;22.90;44.20
40738;DHT22;54759;48.094;-1.628;2023-04-24T16:22:37;23.00;44.00
40738;DHT22;54759;48.094;-1.628;2023-04-24T16:25:38;22.80;43.80
40738;DHT22;54759;48.094;-1.628;2023-04-24T16:28:40;23.00;43.90
40738;DHT22;54759;48.094;-1.628;2023-04-24T16:31:43;23.10;43.90
40738;DHT22;54759;48.094;-1.628;2023-04-24T16:34:45;23.00;43.80
40738;DHT22;54759;48.094;-1.628;2023-04-24T16:37:47;22.80;43.70
40738;DHT22;54759;48.094;-1.628;2023-04-24T16:40:48;23.00;43.90
40738;DHT22;54759;48.094;-1.628;2023-04-24T16:43:50;23.00;43.90
40738;DHT22;54759;48.094;-1.628;2023-04-24T16:46:52;23.00;43.80
40738;DHT22;54759;48.094;-1.628;2023-04-24T16:49:54;22.90;43.80
40738;DHT22;54759;48.094;-1.628;2023-04-24T16:52:56;22.70;43.70
40738;DHT22;54759;48.094;-1.628;2023-04-24T16:55:57;23.10;43.90
40738;DHT22;54759;48.094;-1.628;2023-04-24T16:58:59;22.90;43.90
40738;DHT22;54759;48.094;-1.628;2023-04-24T17:02:01;22.80;43.80
40738;DHT22;54759;48.094;-1.628;2023-04-24T17:05:06;23.10;44.00
40738;DHT22;54759;48.094;-1.628;2023-04-24T17:08:08;22.80;44.50
40738;DHT22;54759;48.094;-1.628;2023-04-24T17:11:09;23.00;44.10
40738;DHT22;54759;48.094;-1.628;2023-04-24T17:14:11;22.90;44.00
40738;DHT22;54759;48.094;-1.628;2023-04-24T17:17:12;22.80;43.90
40738;DHT22;54759;48.094;-1.628;2023-04-24T17:20:15;22.90;43.80
40738;DHT22;54759;48.094;-1.628;2023-04-24T17:23:24;22.90;43.70
40738;DHT22;54759;48.094;-1.628;2023-04-24T17:26:27;22.90;43.70
40738;DHT22;54759;48.094;-1.628;2023-04-24T17:29:28;22.90;43.60
40738;DHT22;54759;48.094;-1.628;2023-04-24T17:32:30;23.00;43.70
40738;DHT22;54759;48.094;-1.628;2023-04-24T17:35:32;23.10;43.80
40738;DHT22;54759;48.094;-1.628;2023-04-24T17:38:33;22.90;43.70
40738;DHT22;54759;48.094;-1.628;2023-04-24T17:41:36;23.10;43.80
40738;DHT22;54759;48.094;-1.628;2023-04-24T17:44:38;23.10;43.80
40738;DHT22;54759;48.094;-1.628;2023-04-24T17:47:39;23.10;43.90
40738;DHT22;54759;48.094;-1.628;2023-04-24T17:50:45;22.90;43.90
40738;DHT22;54759;48.094;-1.628;2023-04-24T17:53:50;22.90;43.80
40738;DHT22;54759;48.094;-1.628;2023-04-24T17:56:52;22.80;43.90
40738;DHT22;54759;48.094;-1.628;2023-04-24T17:59:56;23.00;44.00
40738;DHT22;54759;48.094;-1.628;2023-04-24T18:02:57;22.70;43.90
40738;DHT22;54759;48.094;-1.628;2023-04-24T18:06:01;23.00;44.20
40738;DHT22;54759;48.094;-1.628;2023-04-24T18:09:03;22.60;43.90
40738;DHT22;54759;48.094;-1.628;2023-04-24T18:12:05;22.60;44.00
40738;DHT22;54759;48.094;-1.628;2023-04-24T18:15:10;22.60;44.10
40738;DHT22;54759;48.094;-1.628;2023-04-24T18:18:15;22.90;44.40
40738;DHT22;54759;48.094;-1.628;2023-04-24T18:21:19;22.90;44.50
40738;DHT22;54759;48.094;-1.628;2023-04-24T18:24:21;22.70;44.40
40738;DHT22;54759;48.094;-1.628;2023-04-24T18:27:22;22.80;44.50
40738;DHT22;54759;48.094;-1.628;2023-04-24T18:30:25;22.80;44.50
40738;DHT22;54759;48.094;-1.628;2023-04-24T18:33:28;22.90;44.60
40738;DHT22;54759;48.094;-1.628;2023-04-24T18:36:30;22.80;44.60
40738;DHT22;54759;48.094;-1.628;2023-04-24T18:39:32;22.80;44.70
40738;DHT22;54759;48.094;-1.628;2023-04-24T18:42:36;22.80;44.80
40738;DHT22;54759;48.094;-1.628;2023-04-24T18:45:38;22.90;44.90
40738;DHT22;54759;48.094;-1.628;2023-04-24T18:48:40;22.60;44.70
40738;DHT22;54759;48.094;-1.628;2023-04-24T18:51:42;22.50;44.70
40738;DHT22;54759;48.094;-1.628;2023-04-24T18:54:55;22.80;44.90
40738;DHT22;54759;48.094;-1.628;2023-04-24T18:57:56;22.80;44.90
40738;DHT22;54759;48.094;-1.628;2023-04-24T19:00:57;22.80;45.10
40738;DHT22;54759;48.094;-1.628;2023-04-24T19:04:00;22.30;44.70
40738;DHT22;54759;48.094;-1.628;2023-04-24T19:07:02;22.70;45.00
40738;DHT22;54759;48.094;-1.628;2023-04-24T19:10:04;22.50;44.80